LMML Airport Information

Runway Information
Runway 05 Length 7799 ft width 148 ft
Elevation 297 ft Threshold 0 ft Heading 56
Runway 23 Length 7799 ft Width 148 ft
Elevation 247 ft Threshold 0 ft Heading 236
Runway 13 Length 11627 ft width 197 ft
Elevation 256 ft Threshold 0 ft Heading 135
Runway 31 Length 11627 ft Width 197 ft
Elevation 230 ft Threshold 620 ft Heading 315
Airport Frequencies
Type APP Name APP Frequency 128.15 MHZ
Type Distance R Name Frequency 130.975 MHZ
Type Ground Name Ground Frequency 121.6 MHZ
Type Leaving Name Frequency 123.625 MHZ
Type Runway Name Runway Frequency 138.1 MHZ
Type Volmet Name Frequency 126.8 MHZ
Type Weather Name WX Frequency 127.4 MHZ
Airport Navaids
Type DME Name Malta Frequency 110500 KHZ
Type DME Name Luqa Frequency 109700 KHZ
Type NDB Name Luqa Frequency 416 KHZ
Type NDB Name Malta Frequency 395 KHZ
Airport Weather Information & NOTAM
ADDS - METARS form results

(0225 UTC 20 January 2019)
Data provider http://aviationweather.gov/metar/data/
 
METAR text: LMML 200215Z 36003KT 9999 -RA SCT015CB 10/08 Q1014 TEMPO 7000 TSRA BKN015CB
Conditions at: LMML (LUQA/MALTA , MT) observed 0215 UTC 20 January 2019
Temperature: 10.0°C (50°F)
Dewpoint: 8.0°C (46°F) [RH = 87%]
Pressure (altimeter): 29.94 inches Hg (1014.0 mb)
Winds: from the N (360 degrees) at 3 MPH (3 knots; 1.5 m/s)
Visibility: 6 or more miles (10+ km)
Ceiling: at least 12,000 feet AGL
Clouds: scattered clouds at 1500 feet AGL
Weather: -RA  (light rain)

METAR text: LMML 200205Z 22003KT 200V260 9999 -TSRA SCT015CB 10/08 Q1014 TEMPO 7000 TSRA BKN015CB
Conditions at: LMML (LUQA/MALTA , MT) observed 0205 UTC 20 January 2019
Temperature: 10.0°C (50°F)
Dewpoint: 8.0°C (46°F) [RH = 87%]
Pressure (altimeter): 29.94 inches Hg (1014.0 mb)
Winds: from the SW (220 degrees) at 3 MPH (3 knots; 1.5 m/s)
Visibility: 6 or more miles (10+ km)
Ceiling: at least 12,000 feet AGL
Clouds: scattered clouds at 1500 feet AGL
Weather: -TSRA  (light rain associated with thunderstorm(s))

METAR text: LMML 200145Z 20004KT 140V240 9999 -TSRA SCT015CB 10/08 Q1014 TEMPO 7000 TSRA BKN015CB
Conditions at: LMML (LUQA/MALTA , MT) observed 0145 UTC 20 January 2019
Temperature: 10.0°C (50°F)
Dewpoint: 8.0°C (46°F) [RH = 87%]
Pressure (altimeter): 29.94 inches Hg (1014.0 mb)
Winds: from the SSW (200 degrees) at 5 MPH (4 knots; 2.1 m/s)
Visibility: 6 or more miles (10+ km)
Ceiling: at least 12,000 feet AGL
Clouds: scattered clouds at 1500 feet AGL
Weather: -TSRA  (light rain associated with thunderstorm(s))

Forecast for: LMML (LUQA/MALTA , MT)
Text: TAF LMML 192300Z 2000/2024 26010KT 9999 FEW012 SCT018
Forecast period: 0000 UTC 20 January 2019 to 0000 UTC 21 January 2019
Forecast type: FROM: standard forecast or significant change
Winds: from the W (260 degrees) at 12 MPH (10 knots; 5.1 m/s)
Visibility: 6 or more miles 10+ km)
Ceiling: at least 12,000 feet AGL
Clouds: few clouds at 1200 feet AGL
scattered clouds at 1800 feet AGL
Weather: no significant weather forecast for this period
Text: TEMPO 2000/2017 7000 SHRA BKN014TCU
Forecast period: 0000 to 1700 UTC 20 January 2019
Forecast type: TEMPORARY: The following changes expected for less than half the time period
Visibility: 4 miles (7 km)
Ceiling: 1400 feet AGL
Clouds: broken clouds at 1400 feet AGL
Weather: SHRA  (rain showers)
Text: PROB40 2000/2017 VRB20G30KT 3000 TSRAGS BKN008 BKN014CB
Forecast period: 0000 to 1700 UTC 20 January 2019
Forecast type: PROBABLE: 40 percent likelihood of the following during this time
Winds: variable direction winds at 23 MPH (20 knots; 10.3 m/s)
gusting to 34 MPH (30 knots; 15.4 m/s)
Visibility: 1.86 miles (2.99 km)
Ceiling: 800 feet AGL
Clouds: broken clouds at 800 feet AGL
broken clouds at 1400 feet AGL
Weather: TSRA TSGS  (rain associated with thunderstorm(s), small hail or graupel associated with thunderstorm(s))